Lawtell, Louisiana
Current Conditions -  °F | °C
As of 7:35 AM on Wednesday 22 Oct 2014 (Local Time) from KOPL Reporting Station
Clear Clear  
Wind Chill: 55°   Ceiling: Unl
Heat Index: 55°   Visibility: 10mi
Dew Point: 55°   Wind: 3mph
Humidity: 98%   Direction: 30°NNE
Pressure: 30.08"   Gusts: NA
Location:  30.52°N, 92.19°W
Report Text: KOPL 221235Z AUTO 03003KT 10SM CLR 13/13 A3008 RMK AO2 T01300127
Loading
Personal Weather Stations






























Interactive Weather Map
Tropical Storm Tracking
New forecast layout! Learn more

10-Day Weather Forecast

Advertisements
Track Severe Weather on mobile